sensor_id;sensor_type;location;lat;lon;timestamp;P1;durP1;ratioP1;P2;durP2;ratioP2
6642;SDS011;3357;48.050;7.800;2023-04-29T00:01:54;4.13;;;2.67;;
6642;SDS011;3357;48.050;7.800;2023-04-29T00:04:23;2.93;;;2.47;;
6642;SDS011;3357;48.050;7.800;2023-04-29T00:06:49;4.87;;;2.47;;
6642;SDS011;3357;48.050;7.800;2023-04-29T00:09:14;2.07;;;1.83;;
6642;SDS011;3357;48.050;7.800;2023-04-29T00:11:40;3.03;;;1.80;;
6642;SDS011;3357;48.050;7.800;2023-04-29T00:14:05;3.03;;;2.10;;
6642;SDS011;3357;48.050;7.800;2023-04-29T00:16:30;2.10;;;1.93;;
6642;SDS011;3357;48.050;7.800;2023-04-29T00:18:55;3.97;;;3.67;;
6642;SDS011;3357;48.050;7.800;2023-04-29T00:21:21;5.00;;;3.77;;
6642;SDS011;3357;48.050;7.800;2023-04-29T00:23:46;6.37;;;4.10;;
6642;SDS011;3357;48.050;7.800;2023-04-29T00:26:12;2.93;;;2.73;;
6642;SDS011;3357;48.050;7.800;2023-04-29T00:28:37;2.67;;;2.43;;
6642;SDS011;3357;48.050;7.800;2023-04-29T00:31:02;3.50;;;2.07;;
6642;SDS011;3357;48.050;7.800;2023-04-29T00:33:27;3.00;;;1.93;;
6642;SDS011;3357;48.050;7.800;2023-04-29T00:35:53;2.63;;;2.43;;
6642;SDS011;3357;48.050;7.800;2023-04-29T00:38:18;6.40;;;1.77;;
6642;SDS011;3357;48.050;7.800;2023-04-29T00:40:44;2.70;;;1.93;;
6642;SDS011;3357;48.050;7.800;2023-04-29T00:43:09;2.07;;;1.97;;
6642;SDS011;3357;48.050;7.800;2023-04-29T00:45:35;5.37;;;2.03;;
6642;SDS011;3357;48.050;7.800;2023-04-29T00:48:00;4.70;;;2.10;;
6642;SDS011;3357;48.050;7.800;2023-04-29T00:50:25;4.40;;;1.60;;
6642;SDS011;3357;48.050;7.800;2023-04-29T00:52:51;5.70;;;1.77;;
6642;SDS011;3357;48.050;7.800;2023-04-29T00:55:17;2.80;;;1.83;;
6642;SDS011;3357;48.050;7.800;2023-04-29T00:57:43;1.57;;;1.47;;
6642;SDS011;3357;48.050;7.800;2023-04-29T01:00:12;3.03;;;1.57;;
6642;SDS011;3357;48.050;7.800;2023-04-29T01:02:40;4.30;;;2.10;;
6642;SDS011;3357;48.050;7.800;2023-04-29T01:05:05;2.20;;;2.00;;
6642;SDS011;3357;48.050;7.800;2023-04-29T01:07:36;4.07;;;2.33;;
6642;SDS011;3357;48.050;7.800;2023-04-29T01:13:00;3.03;;;1.80;;
6642;SDS011;3357;48.050;7.800;2023-04-29T01:15:31;3.50;;;1.80;;
6642;SDS011;3357;48.050;7.800;2023-04-29T01:18:14;4.70;;;1.57;;
6642;SDS011;3357;48.050;7.800;2023-04-29T01:20:43;2.60;;;2.17;;
6642;SDS011;3357;48.050;7.800;2023-04-29T01:23:09;4.70;;;2.10;;
6642;SDS011;3357;48.050;7.800;2023-04-29T01:25:34;1.77;;;1.67;;
6642;SDS011;3357;48.050;7.800;2023-04-29T01:31:02;4.10;;;1.87;;
6642;SDS011;3357;48.050;7.800;2023-04-29T01:33:51;1.83;;;1.73;;
6642;SDS011;3357;48.050;7.800;2023-04-29T01:39:13;3.20;;;1.70;;
6642;SDS011;3357;48.050;7.800;2023-04-29T01:41:44;2.50;;;2.30;;
6642;SDS011;3357;48.050;7.800;2023-04-29T01:44:27;3.03;;;2.00;;
6642;SDS011;3357;48.050;7.800;2023-04-29T01:46:53;3.73;;;1.83;;
6642;SDS011;3357;48.050;7.800;2023-04-29T01:49:19;5.13;;;2.00;;
6642;SDS011;3357;48.050;7.800;2023-04-29T01:51:45;1.60;;;1.50;;
6642;SDS011;3357;48.050;7.800;2023-04-29T01:54:11;1.63;;;1.40;;
6642;SDS011;3357;48.050;7.800;2023-04-29T01:56:36;2.33;;;1.17;;
6642;SDS011;3357;48.050;7.800;2023-04-29T01:59:01;3.00;;;2.23;;
6642;SDS011;3357;48.050;7.800;2023-04-29T02:01:27;1.63;;;1.53;;
6642;SDS011;3357;48.050;7.800;2023-04-29T02:03:52;1.13;;;1.10;;
6642;SDS011;3357;48.050;7.800;2023-04-29T02:06:17;1.60;;;1.50;;
6642;SDS011;3357;48.050;7.800;2023-04-29T02:08:43;1.43;;;1.33;;
6642;SDS011;3357;48.050;7.800;2023-04-29T02:11:08;1.50;;;1.40;;
6642;SDS011;3357;48.050;7.800;2023-04-29T02:13:33;1.40;;;1.30;;
6642;SDS011;3357;48.050;7.800;2023-04-29T02:16:08;1.13;;;1.07;;
6642;SDS011;3357;48.050;7.800;2023-04-29T02:18:34;2.40;;;0.97;;
6642;SDS011;3357;48.050;7.800;2023-04-29T02:21:00;1.43;;;1.30;;
6642;SDS011;3357;48.050;7.800;2023-04-29T02:23:26;1.13;;;1.03;;
6642;SDS011;3357;48.050;7.800;2023-04-29T02:25:51;0.80;;;0.80;;
6642;SDS011;3357;48.050;7.800;2023-04-29T02:28:16;1.40;;;1.30;;
6642;SDS011;3357;48.050;7.800;2023-04-29T02:30:42;1.20;;;1.20;;
6642;SDS011;3357;48.050;7.800;2023-04-29T02:33:07;1.17;;;1.07;;
6642;SDS011;3357;48.050;7.800;2023-04-29T02:35:32;0.97;;;0.97;;
6642;SDS011;3357;48.050;7.800;2023-04-29T02:37:57;1.10;;;0.93;;
6642;SDS011;3357;48.050;7.800;2023-04-29T02:40:23;1.10;;;1.10;;
6642;SDS011;3357;48.050;7.800;2023-04-29T02:42:49;1.30;;;1.20;;
6642;SDS011;3357;48.050;7.800;2023-04-29T02:45:15;1.57;;;1.17;;
6642;SDS011;3357;48.050;7.800;2023-04-29T02:47:40;1.10;;;1.10;;
6642;SDS011;3357;48.050;7.800;2023-04-29T02:50:05;2.90;;;1.20;;
6642;SDS011;3357;48.050;7.800;2023-04-29T02:52:31;1.20;;;1.20;;
6642;SDS011;3357;48.050;7.800;2023-04-29T02:54:56;1.10;;;1.10;;
6642;SDS011;3357;48.050;7.800;2023-04-29T02:57:22;2.70;;;0.90;;
6642;SDS011;3357;48.050;7.800;2023-04-29T02:59:47;0.80;;;0.80;;
6642;SDS011;3357;48.050;7.800;2023-04-29T03:02:12;0.90;;;0.90;;
6642;SDS011;3357;48.050;7.800;2023-04-29T03:04:38;1.10;;;1.10;;
6642;SDS011;3357;48.050;7.800;2023-04-29T03:07:04;1.10;;;1.00;;
6642;SDS011;3357;48.050;7.800;2023-04-29T03:09:29;1.13;;;1.03;;
6642;SDS011;3357;48.050;7.800;2023-04-29T03:11:54;2.00;;;1.10;;
6642;SDS011;3357;48.050;7.800;2023-04-29T03:14:20;1.20;;;0.90;;
6642;SDS011;3357;48.050;7.800;2023-04-29T03:16:45;1.60;;;1.50;;
6642;SDS011;3357;48.050;7.800;2023-04-29T03:19:10;1.00;;;1.00;;
6642;SDS011;3357;48.050;7.800;2023-04-29T03:21:36;1.00;;;0.90;;
6642;SDS011;3357;48.050;7.800;2023-04-29T03:24:01;1.07;;;1.07;;
6642;SDS011;3357;48.050;7.800;2023-04-29T03:26:26;1.70;;;1.70;;
6642;SDS011;3357;48.050;7.800;2023-04-29T03:28:51;1.10;;;1.10;;
6642;SDS011;3357;48.050;7.800;2023-04-29T03:31:17;1.40;;;1.30;;
6642;SDS011;3357;48.050;7.800;2023-04-29T03:33:44;2.33;;;1.37;;
6642;SDS011;3357;48.050;7.800;2023-04-29T03:36:10;4.80;;;1.47;;
6642;SDS011;3357;48.050;7.800;2023-04-29T03:38:35;1.57;;;1.47;;
6642;SDS011;3357;48.050;7.800;2023-04-29T03:41:00;1.40;;;1.30;;
6642;SDS011;3357;48.050;7.800;2023-04-29T03:43:26;1.47;;;1.37;;
6642;SDS011;3357;48.050;7.800;2023-04-29T03:45:51;4.10;;;1.43;;
6642;SDS011;3357;48.050;7.800;2023-04-29T03:48:17;1.37;;;1.27;;
6642;SDS011;3357;48.050;7.800;2023-04-29T03:50:44;2.17;;;1.20;;
6642;SDS011;3357;48.050;7.800;2023-04-29T03:53:09;1.63;;;1.10;;
6642;SDS011;3357;48.050;7.800;2023-04-29T03:55:35;1.63;;;1.10;;
6642;SDS011;3357;48.050;7.800;2023-04-29T03:58:01;1.90;;;1.30;;
6642;SDS011;3357;48.050;7.800;2023-04-29T04:00:27;4.10;;;1.40;;
6642;SDS011;3357;48.050;7.800;2023-04-29T04:02:55;4.10;;;1.60;;
6642;SDS011;3357;48.050;7.800;2023-04-29T04:05:20;2.43;;;1.20;;
6642;SDS011;3357;48.050;7.800;2023-04-29T04:07:49;1.53;;;1.43;;
6642;SDS011;3357;48.050;7.800;2023-04-29T04:10:14;1.83;;;1.23;;
6642;SDS011;3357;48.050;7.800;2023-04-29T04:12:39;2.00;;;1.20;;
6642;SDS011;3357;48.050;7.800;2023-04-29T04:15:05;1.87;;;1.10;;
6642;SDS011;3357;48.050;7.800;2023-04-29T04:17:31;0.97;;;0.97;;
6642;SDS011;3357;48.050;7.800;2023-04-29T04:19:56;0.97;;;0.87;;
6642;SDS011;3357;48.050;7.800;2023-04-29T04:22:21;1.10;;;1.00;;
6642;SDS011;3357;48.050;7.800;2023-04-29T04:24:47;1.30;;;0.93;;
6642;SDS011;3357;48.050;7.800;2023-04-29T04:27:12;1.00;;;1.00;;
6642;SDS011;3357;48.050;7.800;2023-04-29T04:29:37;1.60;;;1.10;;
6642;SDS011;3357;48.050;7.800;2023-04-29T04:32:03;1.20;;;1.10;;
6642;SDS011;3357;48.050;7.800;2023-04-29T04:34:28;1.10;;;1.00;;
6642;SDS011;3357;48.050;7.800;2023-04-29T04:36:54;1.30;;;1.20;;
6642;SDS011;3357;48.050;7.800;2023-04-29T04:39:19;3.10;;;1.30;;
6642;SDS011;3357;48.050;7.800;2023-04-29T04:41:44;2.77;;;1.80;;
6642;SDS011;3357;48.050;7.800;2023-04-29T04:44:10;1.57;;;1.50;;
6642;SDS011;3357;48.050;7.800;2023-04-29T04:46:35;1.53;;;1.43;;
6642;SDS011;3357;48.050;7.800;2023-04-29T04:49:01;3.20;;;2.20;;
6642;SDS011;3357;48.050;7.800;2023-04-29T04:51:26;2.67;;;1.60;;
6642;SDS011;3357;48.050;7.800;2023-04-29T04:53:53;4.90;;;1.67;;
6642;SDS011;3357;48.050;7.800;2023-04-29T04:56:18;1.77;;;1.60;;
6642;SDS011;3357;48.050;7.800;2023-04-29T04:58:43;2.90;;;2.03;;
6642;SDS011;3357;48.050;7.800;2023-04-29T05:01:09;4.80;;;1.90;;
6642;SDS011;3357;48.050;7.800;2023-04-29T05:03:34;1.70;;;1.60;;
6642;SDS011;3357;48.050;7.800;2023-04-29T05:05:59;1.90;;;1.80;;
6642;SDS011;3357;48.050;7.800;2023-04-29T05:08:25;1.30;;;1.30;;
6642;SDS011;3357;48.050;7.800;2023-04-29T05:10:51;2.07;;;1.97;;
6642;SDS011;3357;48.050;7.800;2023-04-29T05:13:16;2.13;;;2.03;;
6642;SDS011;3357;48.050;7.800;2023-04-29T05:15:42;3.03;;;1.83;;
6642;SDS011;3357;48.050;7.800;2023-04-29T05:18:08;2.93;;;1.93;;
6642;SDS011;3357;48.050;7.800;2023-04-29T05:20:34;1.73;;;1.63;;
6642;SDS011;3357;48.050;7.800;2023-04-29T05:22:59;2.70;;;2.17;;
6642;SDS011;3357;48.050;7.800;2023-04-29T05:25:25;4.60;;;2.60;;
6642;SDS011;3357;48.050;7.800;2023-04-29T05:27:50;2.70;;;2.33;;
6642;SDS011;3357;48.050;7.800;2023-04-29T05:30:16;4.00;;;2.53;;
6642;SDS011;3357;48.050;7.800;2023-04-29T05:32:42;2.20;;;2.00;;
6642;SDS011;3357;48.050;7.800;2023-04-29T05:35:09;2.30;;;2.10;;
6642;SDS011;3357;48.050;7.800;2023-04-29T05:37:34;5.27;;;1.70;;
6642;SDS011;3357;48.050;7.800;2023-04-29T05:40:00;1.70;;;1.50;;
6642;SDS011;3357;48.050;7.800;2023-04-29T05:42:25;1.43;;;1.33;;
6642;SDS011;3357;48.050;7.800;2023-04-29T05:44:51;1.40;;;1.40;;
6642;SDS011;3357;48.050;7.800;2023-04-29T05:47:16;1.30;;;1.30;;
6642;SDS011;3357;48.050;7.800;2023-04-29T05:49:41;3.90;;;1.57;;
6642;SDS011;3357;48.050;7.800;2023-04-29T05:52:07;2.00;;;1.33;;
6642;SDS011;3357;48.050;7.800;2023-04-29T05:54:32;6.30;;;1.53;;
6642;SDS011;3357;48.050;7.800;2023-04-29T05:56:58;1.47;;;1.33;;
6642;SDS011;3357;48.050;7.800;2023-04-29T05:59:26;1.40;;;1.30;;
6642;SDS011;3357;48.050;7.800;2023-04-29T06:01:53;2.63;;;1.40;;
6642;SDS011;3357;48.050;7.800;2023-04-29T06:04:18;1.30;;;1.30;;
6642;SDS011;3357;48.050;7.800;2023-04-29T06:06:43;6.67;;;1.80;;
6642;SDS011;3357;48.050;7.800;2023-04-29T06:09:09;3.43;;;1.33;;
6642;SDS011;3357;48.050;7.800;2023-04-29T06:11:34;1.70;;;1.50;;
6642;SDS011;3357;48.050;7.800;2023-04-29T06:14:00;3.40;;;1.43;;
6642;SDS011;3357;48.050;7.800;2023-04-29T06:16:25;6.53;;;1.50;;
6642;SDS011;3357;48.050;7.800;2023-04-29T06:18:50;4.93;;;1.47;;
6642;SDS011;3357;48.050;7.800;2023-04-29T06:21:16;4.50;;;1.60;;
6642;SDS011;3357;48.050;7.800;2023-04-29T06:23:41;1.60;;;1.50;;
6642;SDS011;3357;48.050;7.800;2023-04-29T06:26:06;4.30;;;1.30;;
6642;SDS011;3357;48.050;7.800;2023-04-29T06:28:32;1.90;;;1.80;;
6642;SDS011;3357;48.050;7.800;2023-04-29T06:30:57;1.30;;;1.30;;
6642;SDS011;3357;48.050;7.800;2023-04-29T06:33:22;4.40;;;1.10;;
6642;SDS011;3357;48.050;7.800;2023-04-29T06:35:47;1.50;;;1.40;;
6642;SDS011;3357;48.050;7.800;2023-04-29T06:38:13;1.27;;;1.20;;
6642;SDS011;3357;48.050;7.800;2023-04-29T06:40:38;1.60;;;1.50;;
6642;SDS011;3357;48.050;7.800;2023-04-29T06:43:03;1.53;;;1.30;;
6642;SDS011;3357;48.050;7.800;2023-04-29T06:45:29;1.10;;;1.00;;
6642;SDS011;3357;48.050;7.800;2023-04-29T06:47:54;1.30;;;1.20;;
6642;SDS011;3357;48.050;7.800;2023-04-29T06:50:20;1.60;;;1.10;;
6642;SDS011;3357;48.050;7.800;2023-04-29T06:52:45;1.67;;;1.30;;
6642;SDS011;3357;48.050;7.800;2023-04-29T06:55:10;5.37;;;2.00;;
6642;SDS011;3357;48.050;7.800;2023-04-29T06:57:36;1.17;;;1.17;;
6642;SDS011;3357;48.050;7.800;2023-04-29T07:00:01;2.80;;;1.43;;
6642;SDS011;3357;48.050;7.800;2023-04-29T07:02:28;1.10;;;1.10;;
6642;SDS011;3357;48.050;7.800;2023-04-29T07:04:53;1.20;;;1.20;;
6642;SDS011;3357;48.050;7.800;2023-04-29T07:07:19;2.60;;;1.50;;
6642;SDS011;3357;48.050;7.800;2023-04-29T07:09:44;6.97;;;1.30;;
6642;SDS011;3357;48.050;7.800;2023-04-29T07:12:10;1.30;;;1.20;;
6642;SDS011;3357;48.050;7.800;2023-04-29T07:14:35;7.37;;;2.00;;
6642;SDS011;3357;48.050;7.800;2023-04-29T07:17:01;2.10;;;1.40;;
6642;SDS011;3357;48.050;7.800;2023-04-29T07:19:26;1.50;;;1.40;;
6642;SDS011;3357;48.050;7.800;2023-04-29T07:21:52;1.93;;;1.83;;
6642;SDS011;3357;48.050;7.800;2023-04-29T07:24:17;2.30;;;1.40;;
6642;SDS011;3357;48.050;7.800;2023-04-29T07:26:42;1.87;;;1.60;;
6642;SDS011;3357;48.050;7.800;2023-04-29T07:29:11;1.30;;;1.20;;
6642;SDS011;3357;48.050;7.800;2023-04-29T07:31:36;2.20;;;1.47;;
6642;SDS011;3357;48.050;7.800;2023-04-29T07:34:02;1.73;;;1.57;;
6642;SDS011;3357;48.050;7.800;2023-04-29T07:36:27;2.60;;;1.70;;
6642;SDS011;3357;48.050;7.800;2023-04-29T07:38:53;1.70;;;1.60;;
6642;SDS011;3357;48.050;7.800;2023-04-29T07:41:19;1.40;;;1.40;;
6642;SDS011;3357;48.050;7.800;2023-04-29T07:43:44;2.03;;;1.60;;
6642;SDS011;3357;48.050;7.800;2023-04-29T07:46:09;1.40;;;1.30;;
6642;SDS011;3357;48.050;7.800;2023-04-29T07:48:37;3.40;;;1.40;;
6642;SDS011;3357;48.050;7.800;2023-04-29T07:51:03;6.33;;;2.00;;
6642;SDS011;3357;48.050;7.800;2023-04-29T07:53:29;1.60;;;1.50;;
6642;SDS011;3357;48.050;7.800;2023-04-29T07:55:54;1.60;;;1.50;;
6642;SDS011;3357;48.050;7.800;2023-04-29T07:58:20;1.83;;;1.50;;
6642;SDS011;3357;48.050;7.800;2023-04-29T08:00:46;3.27;;;1.30;;
6642;SDS011;3357;48.050;7.800;2023-04-29T08:03:11;1.63;;;1.53;;
6642;SDS011;3357;48.050;7.800;2023-04-29T08:05:37;1.43;;;1.40;;
6642;SDS011;3357;48.050;7.800;2023-04-29T08:08:02;1.40;;;1.30;;
6642;SDS011;3357;48.050;7.800;2023-04-29T08:10:28;2.60;;;1.30;;
6642;SDS011;3357;48.050;7.800;2023-04-29T08:12:53;1.53;;;1.43;;
6642;SDS011;3357;48.050;7.800;2023-04-29T08:15:18;1.77;;;1.30;;
6642;SDS011;3357;48.050;7.800;2023-04-29T08:17:44;2.13;;;1.70;;
6642;SDS011;3357;48.050;7.800;2023-04-29T08:20:09;2.70;;;1.20;;
6642;SDS011;3357;48.050;7.800;2023-04-29T08:22:35;5.13;;;1.27;;
6642;SDS011;3357;48.050;7.800;2023-04-29T08:25:01;3.23;;;2.07;;
6642;SDS011;3357;48.050;7.800;2023-04-29T08:27:29;3.80;;;2.60;;
6642;SDS011;3357;48.050;7.800;2023-04-29T08:29:54;5.60;;;1.73;;
6642;SDS011;3357;48.050;7.800;2023-04-29T08:32:20;2.03;;;1.87;;
6642;SDS011;3357;48.050;7.800;2023-04-29T08:34:45;2.93;;;1.63;;
6642;SDS011;3357;48.050;7.800;2023-04-29T08:37:10;2.20;;;1.80;;
6642;SDS011;3357;48.050;7.800;2023-04-29T08:39:36;3.43;;;1.77;;
6642;SDS011;3357;48.050;7.800;2023-04-29T08:42:08;3.10;;;2.10;;
6642;SDS011;3357;48.050;7.800;2023-04-29T08:44:34;4.60;;;2.27;;
6642;SDS011;3357;48.050;7.800;2023-04-29T08:47:01;4.33;;;1.90;;
6642;SDS011;3357;48.050;7.800;2023-04-29T08:49:27;2.27;;;2.10;;
6642;SDS011;3357;48.050;7.800;2023-04-29T08:51:53;3.73;;;1.37;;
6642;SDS011;3357;48.050;7.800;2023-04-29T08:54:18;4.53;;;2.00;;
6642;SDS011;3357;48.050;7.800;2023-04-29T08:56:44;2.10;;;1.90;;
6642;SDS011;3357;48.050;7.800;2023-04-29T08:59:11;4.73;;;2.13;;
6642;SDS011;3357;48.050;7.800;2023-04-29T09:01:38;1.87;;;1.77;;
6642;SDS011;3357;48.050;7.800;2023-04-29T09:06:55;2.70;;;1.80;;
6642;SDS011;3357;48.050;7.800;2023-04-29T09:09:20;2.03;;;1.93;;
6642;SDS011;3357;48.050;7.800;2023-04-29T09:11:46;7.40;;;2.47;;
6642;SDS011;3357;48.050;7.800;2023-04-29T09:14:11;3.37;;;2.30;;
6642;SDS011;3357;48.050;7.800;2023-04-29T09:16:37;2.40;;;2.00;;
6642;SDS011;3357;48.050;7.800;2023-04-29T09:19:03;2.50;;;2.30;;
6642;SDS011;3357;48.050;7.800;2023-04-29T09:21:28;4.83;;;2.20;;
6642;SDS011;3357;48.050;7.800;2023-04-29T09:23:58;6.57;;;2.13;;
6642;SDS011;3357;48.050;7.800;2023-04-29T09:26:24;2.20;;;1.87;;
6642;SDS011;3357;48.050;7.800;2023-04-29T09:29:11;3.87;;;3.57;;
6642;SDS011;3357;48.050;7.800;2023-04-29T09:31:40;2.93;;;2.53;;
6642;SDS011;3357;48.050;7.800;2023-04-29T09:34:06;2.67;;;2.57;;
6642;SDS011;3357;48.050;7.800;2023-04-29T09:36:35;2.50;;;2.30;;
6642;SDS011;3357;48.050;7.800;2023-04-29T09:39:02;3.23;;;2.63;;
6642;SDS011;3357;48.050;7.800;2023-04-29T09:41:30;2.80;;;2.60;;
6642;SDS011;3357;48.050;7.800;2023-04-29T09:44:02;2.33;;;2.23;;
6642;SDS011;3357;48.050;7.800;2023-04-29T09:46:29;2.63;;;2.43;;
6642;SDS011;3357;48.050;7.800;2023-04-29T09:48:54;2.47;;;2.33;;
6642;SDS011;3357;48.050;7.800;2023-04-29T09:51:21;2.43;;;2.33;;
6642;SDS011;3357;48.050;7.800;2023-04-29T09:53:46;2.47;;;2.27;;
6642;SDS011;3357;48.050;7.800;2023-04-29T09:56:12;2.43;;;2.17;;
6642;SDS011;3357;48.050;7.800;2023-04-29T09:58:37;2.50;;;2.30;;
6642;SDS011;3357;48.050;7.800;2023-04-29T10:01:03;6.23;;;2.73;;
6642;SDS011;3357;48.050;7.800;2023-04-29T10:03:30;4.67;;;3.17;;
6642;SDS011;3357;48.050;7.800;2023-04-29T10:05:57;3.17;;;2.97;;
6642;SDS011;3357;48.050;7.800;2023-04-29T10:08:22;2.93;;;2.73;;
6642;SDS011;3357;48.050;7.800;2023-04-29T10:10:48;3.70;;;2.87;;
6642;SDS011;3357;48.050;7.800;2023-04-29T10:13:21;2.87;;;2.60;;
6642;SDS011;3357;48.050;7.800;2023-04-29T10:15:48;8.90;;;3.30;;
6642;SDS011;3357;48.050;7.800;2023-04-29T10:18:20;4.03;;;2.90;;
6642;SDS011;3357;48.050;7.800;2023-04-29T10:20:46;5.17;;;3.90;;
6642;SDS011;3357;48.050;7.800;2023-04-29T10:23:12;4.37;;;3.67;;
6642;SDS011;3357;48.050;7.800;2023-04-29T10:25:39;3.37;;;2.83;;
6642;SDS011;3357;48.050;7.800;2023-04-29T10:28:08;3.00;;;2.70;;
6642;SDS011;3357;48.050;7.800;2023-04-29T10:30:37;5.87;;;3.80;;
6642;SDS011;3357;48.050;7.800;2023-04-29T10:33:02;3.70;;;3.10;;
6642;SDS011;3357;48.050;7.800;2023-04-29T10:35:28;6.30;;;2.73;;
6642;SDS011;3357;48.050;7.800;2023-04-29T10:37:54;2.40;;;2.30;;
6642;SDS011;3357;48.050;7.800;2023-04-29T10:40:26;3.37;;;3.07;;
6642;SDS011;3357;48.050;7.800;2023-04-29T10:43:14;4.13;;;3.30;;
6642;SDS011;3357;48.050;7.800;2023-04-29T10:45:39;3.43;;;2.37;;
6642;SDS011;3357;48.050;7.800;2023-04-29T10:48:11;4.40;;;2.30;;
6642;SDS011;3357;48.050;7.800;2023-04-29T10:51:11;2.90;;;2.70;;
6642;SDS011;3357;48.050;7.800;2023-04-29T10:53:29;2.97;;;2.77;;
6642;SDS011;3357;48.050;7.800;2023-04-29T10:55:56;2.93;;;2.73;;
6642;SDS011;3357;48.050;7.800;2023-04-29T11:01:01;2.83;;;2.03;;
6642;SDS011;3357;48.050;7.800;2023-04-29T11:06:19;5.00;;;2.10;;
6642;SDS011;3357;48.050;7.800;2023-04-29T11:08:44;2.57;;;2.37;;
6642;SDS011;3357;48.050;7.800;2023-04-29T11:11:09;2.53;;;2.40;;
6642;SDS011;3357;48.050;7.800;2023-04-29T11:13:38;2.63;;;2.43;;
6642;SDS011;3357;48.050;7.800;2023-04-29T11:16:08;2.57;;;2.20;;
6642;SDS011;3357;48.050;7.800;2023-04-29T11:18:35;3.60;;;1.53;;
6642;SDS011;3357;48.050;7.800;2023-04-29T11:23:29;1.87;;;1.77;;
6642;SDS011;3357;48.050;7.800;2023-04-29T11:25:55;5.50;;;2.17;;
6642;SDS011;3357;48.050;7.800;2023-04-29T11:28:21;1.77;;;1.67;;
6642;SDS011;3357;48.050;7.800;2023-04-29T11:30:49;1.73;;;1.63;;
6642;SDS011;3357;48.050;7.800;2023-04-29T11:33:15;1.90;;;1.80;;
6642;SDS011;3357;48.050;7.800;2023-04-29T11:35:40;3.53;;;1.80;;
6642;SDS011;3357;48.050;7.800;2023-04-29T11:38:06;1.50;;;1.40;;
6642;SDS011;3357;48.050;7.800;2023-04-29T11:40:31;1.37;;;1.37;;
6642;SDS011;3357;48.050;7.800;2023-04-29T11:42:57;2.20;;;1.60;;
6642;SDS011;3357;48.050;7.800;2023-04-29T11:45:22;2.70;;;2.23;;
6642;SDS011;3357;48.050;7.800;2023-04-29T11:47:48;3.20;;;1.47;;
6642;SDS011;3357;48.050;7.800;2023-04-29T11:50:14;1.90;;;1.80;;
6642;SDS011;3357;48.050;7.800;2023-04-29T11:52:45;2.33;;;1.87;;
6642;SDS011;3357;48.050;7.800;2023-04-29T11:55:11;2.20;;;1.77;;
6642;SDS011;3357;48.050;7.800;2023-04-29T11:57:38;3.03;;;1.73;;
6642;SDS011;3357;48.050;7.800;2023-04-29T12:00:04;2.77;;;1.60;;
6642;SDS011;3357;48.050;7.800;2023-04-29T12:02:33;3.17;;;1.50;;
6642;SDS011;3357;48.050;7.800;2023-04-29T12:04:59;1.63;;;1.53;;
6642;SDS011;3357;48.050;7.800;2023-04-29T12:07:25;6.40;;;1.50;;
6642;SDS011;3357;48.050;7.800;2023-04-29T12:09:50;1.67;;;1.57;;
6642;SDS011;3357;48.050;7.800;2023-04-29T12:12:16;1.80;;;1.60;;
6642;SDS011;3357;48.050;7.800;2023-04-29T12:14:41;4.27;;;1.93;;
6642;SDS011;3357;48.050;7.800;2023-04-29T12:17:07;2.60;;;1.90;;
6642;SDS011;3357;48.050;7.800;2023-04-29T12:19:33;1.70;;;1.60;;
6642;SDS011;3357;48.050;7.800;2023-04-29T12:22:01;2.03;;;1.40;;
6642;SDS011;3357;48.050;7.800;2023-04-29T12:24:27;1.50;;;1.40;;
6642;SDS011;3357;48.050;7.800;2023-04-29T12:26:53;1.53;;;1.43;;
6642;SDS011;3357;48.050;7.800;2023-04-29T12:29:20;1.57;;;1.47;;
6642;SDS011;3357;48.050;7.800;2023-04-29T12:31:47;2.37;;;1.37;;
6642;SDS011;3357;48.050;7.800;2023-04-29T12:34:13;1.80;;;1.70;;
6642;SDS011;3357;48.050;7.800;2023-04-29T12:36:40;2.70;;;1.60;;
6642;SDS011;3357;48.050;7.800;2023-04-29T12:39:06;2.60;;;2.40;;
6642;SDS011;3357;48.050;7.800;2023-04-29T12:41:40;2.20;;;1.87;;
6642;SDS011;3357;48.050;7.800;2023-04-29T12:44:06;2.00;;;1.90;;
6642;SDS011;3357;48.050;7.800;2023-04-29T12:46:35;2.37;;;1.80;;
6642;SDS011;3357;48.050;7.800;2023-04-29T12:49:02;3.90;;;2.20;;
6642;SDS011;3357;48.050;7.800;2023-04-29T12:51:29;1.77;;;1.67;;
6642;SDS011;3357;48.050;7.800;2023-04-29T12:54:01;2.43;;;1.70;;
6642;SDS011;3357;48.050;7.800;2023-04-29T12:56:28;3.47;;;2.23;;
6642;SDS011;3357;48.050;7.800;2023-04-29T12:58:53;2.23;;;2.13;;
6642;SDS011;3357;48.050;7.800;2023-04-29T13:01:19;1.97;;;1.77;;
6642;SDS011;3357;48.050;7.800;2023-04-29T13:03:44;2.00;;;1.90;;
6642;SDS011;3357;48.050;7.800;2023-04-29T13:06:10;3.10;;;1.60;;
6642;SDS011;3357;48.050;7.800;2023-04-29T13:08:35;2.97;;;2.77;;
6642;SDS011;3357;48.050;7.800;2023-04-29T13:11:01;2.70;;;2.50;;
6642;SDS011;3357;48.050;7.800;2023-04-29T13:13:26;2.23;;;2.13;;
6642;SDS011;3357;48.050;7.800;2023-04-29T13:15:51;3.40;;;2.27;;
6642;SDS011;3357;48.050;7.800;2023-04-29T13:18:17;2.20;;;2.10;;
6642;SDS011;3357;48.050;7.800;2023-04-29T13:20:42;3.93;;;2.20;;
6642;SDS011;3357;48.050;7.800;2023-04-29T13:23:08;2.73;;;2.50;;
6642;SDS011;3357;48.050;7.800;2023-04-29T13:25:33;3.17;;;2.27;;
6642;SDS011;3357;48.050;7.800;2023-04-29T13:27:58;3.10;;;2.90;;
6642;SDS011;3357;48.050;7.800;2023-04-29T13:30:24;2.07;;;1.93;;
6642;SDS011;3357;48.050;7.800;2023-04-29T13:32:49;2.03;;;1.90;;
6642;SDS011;3357;48.050;7.800;2023-04-29T13:35:15;2.50;;;2.40;;
6642;SDS011;3357;48.050;7.800;2023-04-29T13:37:40;4.43;;;2.70;;
6642;SDS011;3357;48.050;7.800;2023-04-29T13:40:06;2.87;;;2.67;;
6642;SDS011;3357;48.050;7.800;2023-04-29T13:42:31;4.00;;;2.57;;
6642;SDS011;3357;48.050;7.800;2023-04-29T13:44:57;2.33;;;2.10;;
6642;SDS011;3357;48.050;7.800;2023-04-29T13:47:22;1.90;;;1.80;;
6642;SDS011;3357;48.050;7.800;2023-04-29T13:49:48;7.10;;;2.00;;
6642;SDS011;3357;48.050;7.800;2023-04-29T13:52:13;3.70;;;2.90;;
6642;SDS011;3357;48.050;7.800;2023-04-29T13:54:38;2.90;;;2.63;;
6642;SDS011;3357;48.050;7.800;2023-04-29T13:57:04;7.13;;;3.20;;
6642;SDS011;3357;48.050;7.800;2023-04-29T13:59:32;2.47;;;2.27;;
6642;SDS011;3357;48.050;7.800;2023-04-29T14:01:59;2.53;;;2.30;;
6642;SDS011;3357;48.050;7.800;2023-04-29T14:04:25;3.40;;;3.07;;
6642;SDS011;3357;48.050;7.800;2023-04-29T14:06:51;4.13;;;2.83;;
6642;SDS011;3357;48.050;7.800;2023-04-29T14:09:16;2.80;;;2.60;;
6642;SDS011;3357;48.050;7.800;2023-04-29T14:11:43;3.00;;;2.73;;
6642;SDS011;3357;48.050;7.800;2023-04-29T14:14:08;3.80;;;2.80;;
6642;SDS011;3357;48.050;7.800;2023-04-29T14:16:34;2.43;;;2.33;;
6642;SDS011;3357;48.050;7.800;2023-04-29T14:18:59;2.63;;;2.43;;
6642;SDS011;3357;48.050;7.800;2023-04-29T14:21:24;2.33;;;2.10;;
6642;SDS011;3357;48.050;7.800;2023-04-29T14:23:50;4.03;;;2.57;;
6642;SDS011;3357;48.050;7.800;2023-04-29T14:26:15;4.20;;;2.80;;
6642;SDS011;3357;48.050;7.800;2023-04-29T14:28:41;3.13;;;2.60;;
6642;SDS011;3357;48.050;7.800;2023-04-29T14:31:06;3.23;;;2.97;;
6642;SDS011;3357;48.050;7.800;2023-04-29T14:33:31;4.27;;;3.87;;
6642;SDS011;3357;48.050;7.800;2023-04-29T14:35:57;3.90;;;3.57;;
6642;SDS011;3357;48.050;7.800;2023-04-29T14:38:22;3.30;;;2.50;;
6642;SDS011;3357;48.050;7.800;2023-04-29T14:40:48;3.13;;;2.93;;
6642;SDS011;3357;48.050;7.800;2023-04-29T14:43:13;3.47;;;3.27;;
6642;SDS011;3357;48.050;7.800;2023-04-29T14:45:39;5.07;;;3.20;;
6642;SDS011;3357;48.050;7.800;2023-04-29T14:48:05;2.87;;;2.67;;
6642;SDS011;3357;48.050;7.800;2023-04-29T14:50:30;3.67;;;2.90;;
6642;SDS011;3357;48.050;7.800;2023-04-29T14:52:55;4.83;;;3.23;;
6642;SDS011;3357;48.050;7.800;2023-04-29T14:55:21;5.60;;;3.33;;
6642;SDS011;3357;48.050;7.800;2023-04-29T14:57:47;2.80;;;2.60;;
6642;SDS011;3357;48.050;7.800;2023-04-29T15:00:12;3.83;;;3.03;;
6642;SDS011;3357;48.050;7.800;2023-04-29T15:02:39;4.10;;;2.83;;
6642;SDS011;3357;48.050;7.800;2023-04-29T15:05:04;3.47;;;3.27;;
6642;SDS011;3357;48.050;7.800;2023-04-29T15:07:30;4.90;;;3.37;;
6642;SDS011;3357;48.050;7.800;2023-04-29T15:09:56;4.10;;;3.40;;
6642;SDS011;3357;48.050;7.800;2023-04-29T15:12:22;3.77;;;3.37;;
6642;SDS011;3357;48.050;7.800;2023-04-29T15:14:47;4.13;;;3.77;;
6642;SDS011;3357;48.050;7.800;2023-04-29T15:17:12;4.00;;;3.70;;
6642;SDS011;3357;48.050;7.800;2023-04-29T15:19:38;3.80;;;3.37;;
6642;SDS011;3357;48.050;7.800;2023-04-29T15:22:03;3.10;;;2.90;;
6642;SDS011;3357;48.050;7.800;2023-04-29T15:24:28;3.50;;;3.20;;
6642;SDS011;3357;48.050;7.800;2023-04-29T15:26:53;4.43;;;3.60;;
6642;SDS011;3357;48.050;7.800;2023-04-29T15:29:19;3.30;;;3.10;;